createdAt,value
2018-02-19T00:01:35.990Z,12.20
2018-02-19T00:04:02.873Z,7.63
2018-02-19T00:06:29.113Z,10.60
2018-02-19T00:08:55.520Z,9.17
2018-02-19T00:11:22.384Z,24.23
2018-02-19T00:13:50.086Z,22.23
2018-02-19T00:16:16.370Z,14.40
2018-02-19T00:18:43.353Z,9.60
2018-02-19T00:21:10.252Z,8.10
2018-02-19T00:23:36.913Z,6.23
2018-02-19T00:26:03.554Z,6.57
2018-02-19T00:28:29.801Z,4.67
2018-02-19T00:30:56.795Z,9.37
2018-02-19T00:33:23.388Z,8.43
2018-02-19T00:35:49.634Z,4.70
2018-02-19T00:38:16.618Z,4.23
2018-02-19T00:40:42.874Z,4.80
2018-02-19T00:43:09.114Z,4.67
2018-02-19T00:45:35.452Z,3.80
2018-02-19T00:48:02.233Z,3.80
2018-02-19T00:50:29.225Z,3.37
2018-02-19T00:52:56.148Z,3.40
2018-02-19T00:55:23.186Z,3.10
2018-02-19T00:57:50.161Z,3.23
2018-02-19T01:00:16.788Z,3.50
2018-02-19T01:02:44.358Z,4.27
2018-02-19T01:05:11.341Z,5.23
2018-02-19T01:07:37.596Z,3.10
2018-02-19T01:10:04.177Z,3.07
2018-02-19T01:12:31.651Z,5.67
2018-02-19T01:14:59.464Z,4.00
2018-02-19T01:17:25.746Z,3.30
2018-02-19T01:19:53.212Z,3.87
2018-02-19T01:22:20.772Z,3.47
2018-02-19T01:24:48.230Z,3.47
2018-02-19T01:27:15.225Z,3.17
2018-02-19T01:29:56.444Z,3.30
2018-02-19T01:32:23.827Z,3.10
2018-02-19T01:34:50.822Z,7.63
2018-02-19T01:37:17.074Z,8.60
2018-02-19T01:39:43.348Z,25.70
2018-02-19T01:42:10.336Z,24.70
2018-02-19T01:44:36.676Z,18.43
2018-02-19T01:47:03.385Z,17.03
2018-02-19T01:49:30.371Z,12.17
2018-02-19T01:51:57.235Z,5.53
2018-02-19T01:54:24.076Z,3.60
2018-02-19T01:56:50.696Z,4.27
2018-02-19T01:59:18.347Z,5.93
2018-02-19T02:01:45.043Z,5.10
2018-02-19T02:04:11.282Z,4.40
2018-02-19T02:06:37.539Z,4.33
2018-02-19T02:09:04.902Z,3.63
2018-02-19T02:11:32.426Z,3.30
2018-02-19T02:13:59.118Z,4.93
2018-02-19T02:16:26.579Z,3.97
2018-02-19T02:18:54.012Z,4.50
2018-02-19T02:21:20.686Z,3.63
2018-02-19T02:23:48.026Z,11.07
2018-02-19T02:26:14.879Z,18.80
2018-02-19T02:28:41.113Z,17.33
2018-02-19T02:31:08.111Z,12.23
2018-02-19T02:33:34.811Z,5.30
2018-02-19T02:36:01.807Z,9.37
2018-02-19T02:38:28.062Z,11.30
2018-02-19T02:40:54.309Z,6.57
2018-02-19T02:43:20.566Z,9.00
2018-02-19T02:45:46.918Z,10.57
2018-02-19T02:48:13.716Z,6.90
2018-02-19T02:50:39.963Z,3.70
2018-02-19T02:53:06.741Z,4.73
2018-02-19T02:55:34.070Z,5.77
2018-02-19T02:58:00.326Z,5.40
2018-02-19T03:00:27.302Z,3.67
2018-02-19T03:02:53.570Z,2.90
2018-02-19T03:05:19.822Z,4.80
2018-02-19T03:07:46.154Z,4.77
2018-02-19T03:10:12.675Z,5.73
2018-02-19T03:12:38.938Z,4.70
2018-02-19T03:15:05.614Z,3.53
2018-02-19T03:17:33.067Z,4.43
2018-02-19T03:20:00.412Z,3.17
2018-02-19T03:22:26.650Z,3.23
2018-02-19T03:24:53.509Z,3.73
2018-02-19T03:27:20.550Z,3.40
2018-02-19T03:29:46.789Z,3.87
2018-02-19T03:32:13.955Z,3.70
2018-02-19T03:34:40.937Z,5.03
2018-02-19T03:37:07.182Z,6.90
2018-02-19T03:39:33.454Z,3.40
2018-02-19T03:41:59.694Z,3.57
2018-02-19T03:44:26.624Z,2.77
2018-02-19T03:46:53.508Z,3.97
2018-02-19T03:49:20.547Z,3.50
2018-02-19T03:51:46.789Z,2.73
2018-02-19T03:54:14.116Z,3.00
2018-02-19T03:56:40.898Z,3.23
2018-02-19T03:59:07.886Z,3.20
2018-02-19T04:01:34.181Z,3.47
2018-02-19T04:04:01.642Z,2.80
2018-02-19T04:06:28.638Z,3.07
2018-02-19T04:08:54.907Z,3.53
2018-02-19T04:11:21.882Z,3.10
2018-02-19T04:13:49.762Z,3.20
2018-02-19T04:16:16.742Z,3.00
2018-02-19T04:18:42.994Z,4.90
2018-02-19T04:21:09.698Z,5.30
2018-02-19T04:23:37.194Z,3.47
2018-02-19T04:26:03.891Z,5.13
2018-02-19T04:28:30.881Z,3.00
2018-02-19T04:30:58.507Z,3.13
2018-02-19T04:33:25.757Z,3.13
2018-02-19T04:35:51.990Z,4.87
2018-02-19T04:38:18.979Z,4.30
2018-02-19T04:40:45.506Z,5.70
2018-02-19T04:43:14.387Z,4.37
2018-02-19T04:45:46.965Z,3.40
2018-02-19T04:48:14.318Z,8.30
2018-02-19T04:50:40.958Z,3.33
2018-02-19T04:53:07.725Z,5.77
2018-02-19T04:55:34.754Z,3.33
2018-02-19T04:58:01.766Z,2.97
2018-02-19T05:00:28.566Z,2.70
2018-02-19T05:02:55.547Z,3.33
2018-02-19T05:05:21.826Z,3.30
2018-02-19T05:07:48.090Z,6.20
2018-02-19T05:10:15.552Z,5.57
2018-02-19T05:12:42.906Z,5.40
2018-02-19T05:15:10.445Z,5.00
2018-02-19T05:17:36.698Z,4.47
2018-02-19T05:20:04.086Z,3.27
2018-02-19T05:22:30.782Z,4.87
2018-02-19T05:24:57.443Z,4.30
2018-02-19T05:27:23.731Z,12.60
2018-02-19T05:29:49.979Z,8.63
2018-02-19T05:32:16.554Z,5.40
2018-02-19T05:34:42.994Z,4.80
2018-02-19T05:37:09.246Z,7.47
2018-02-19T05:39:36.250Z,6.10
2018-02-19T05:42:02.523Z,8.10
2018-02-19T05:44:29.618Z,14.80
2018-02-19T05:46:56.635Z,10.53
2018-02-19T05:49:24.206Z,7.83
2018-02-19T05:51:51.286Z,14.47
2018-02-19T05:54:17.862Z,8.73
2018-02-19T05:56:44.109Z,12.40
2018-02-19T05:59:10.829Z,5.80
2018-02-19T06:01:37.077Z,5.10
2018-02-19T06:04:03.340Z,9.63
2018-02-19T06:06:45.915Z,10.37
2018-02-19T06:09:13.014Z,9.70
2018-02-19T06:11:39.274Z,6.15
2018-02-19T06:14:05.821Z,6.43
2018-02-19T06:16:32.069Z,12.83
2018-02-19T06:18:58.869Z,8.63
2018-02-19T06:21:26.203Z,9.70
2018-02-19T06:23:52.930Z,8.80
2018-02-19T06:26:19.611Z,10.43
2018-02-19T06:28:46.594Z,9.50
2018-02-19T06:31:13.522Z,8.23
2018-02-19T06:33:40.502Z,6.97
2018-02-19T06:36:06.750Z,12.53
2018-02-19T06:38:33.446Z,7.17
2018-02-19T06:41:00.430Z,7.00
2018-02-19T06:43:26.893Z,5.87
2018-02-19T06:45:53.883Z,4.53
2018-02-19T06:48:21.406Z,5.87
2018-02-19T06:50:47.684Z,5.53
2018-02-19T06:53:14.702Z,6.47
2018-02-19T06:55:41.579Z,11.93
2018-02-19T06:58:08.573Z,4.57
2018-02-19T07:00:34.829Z,5.80
2018-02-19T07:03:01.502Z,6.23
2018-02-19T07:05:29.908Z,4.93
2018-02-19T07:07:57.475Z,4.83
2018-02-19T07:10:23.730Z,3.77
2018-02-19T07:12:50.653Z,6.20
2018-02-19T07:15:17.654Z,4.73
2018-02-19T07:17:43.903Z,5.13
2018-02-19T07:20:10.706Z,3.77
2018-02-19T07:22:36.955Z,4.27
2018-02-19T07:25:03.925Z,3.93
2018-02-19T07:27:30.198Z,4.23
2018-02-19T07:29:57.206Z,3.60
2018-02-19T07:32:23.860Z,4.10
2018-02-19T07:34:50.118Z,6.53
2018-02-19T07:37:16.950Z,8.10
2018-02-19T07:39:43.200Z,5.20
2018-02-19T07:42:09.451Z,4.20
2018-02-19T07:44:36.919Z,10.20
2018-02-19T07:47:04.398Z,11.70
2018-02-19T07:49:31.002Z,11.70
2018-02-19T07:51:57.254Z,7.00
2018-02-19T07:54:24.829Z,5.50
2018-02-19T07:56:51.098Z,4.20
2018-02-19T07:59:17.995Z,10.07
2018-02-19T08:01:45.550Z,3.73
2018-02-19T08:04:13.334Z,4.80
2018-02-19T08:06:40.331Z,4.20
2018-02-19T08:09:06.570Z,8.87
2018-02-19T08:11:32.857Z,8.93
2018-02-19T08:14:00.416Z,5.93
2018-02-19T08:16:27.404Z,7.93
2018-02-19T08:18:53.646Z,13.93
2018-02-19T08:21:20.302Z,11.50
2018-02-19T08:23:46.546Z,13.93
2018-02-19T08:26:13.106Z,9.03
2018-02-19T08:28:39.362Z,7.30
2018-02-19T08:31:07.262Z,13.60
2018-02-19T08:33:33.558Z,11.47
2018-02-19T08:36:00.995Z,13.93
2018-02-19T08:38:27.254Z,11.10
2018-02-19T08:40:55.139Z,11.07
2018-02-19T08:43:22.133Z,7.90
2018-02-19T08:45:48.402Z,12.13
2018-02-19T08:48:15.165Z,23.07
2018-02-19T08:50:42.739Z,51.37
2018-02-19T08:53:08.997Z,24.93
2018-02-19T08:55:36.534Z,13.97
2018-02-19T08:58:03.539Z,11.60
2018-02-19T09:00:30.235Z,39.73
2018-02-19T09:02:57.894Z,10.80
2018-02-19T09:05:24.878Z,16.77
2018-02-19T09:07:51.131Z,10.63
2018-02-19T09:10:17.726Z,12.67
2018-02-19T09:12:44.710Z,11.60
2018-02-19T09:15:11.398Z,10.47
2018-02-19T09:17:38.914Z,8.67
2018-02-19T09:20:05.733Z,8.57
2018-02-19T09:22:32.722Z,9.13
2018-02-19T09:24:59.515Z,12.30
2018-02-19T09:27:26.493Z,10.77
2018-02-19T09:29:52.747Z,11.83
2018-02-19T09:32:20.486Z,10.90
2018-02-19T09:34:47.477Z,12.90
2018-02-19T09:37:14.130Z,13.33
2018-02-19T09:39:40.822Z,11.87
2018-02-19T09:42:07.822Z,14.53
2018-02-19T09:44:34.706Z,10.40
2018-02-19T09:47:02.186Z,12.30
2018-02-19T09:49:29.502Z,10.90
2018-02-19T09:51:56.386Z,12.80
2018-02-19T09:54:23.451Z,12.10
2018-02-19T09:56:50.899Z,13.70
2018-02-19T09:59:17.884Z,10.47
2018-02-19T10:01:44.570Z,13.50
2018-02-19T10:04:10.827Z,14.47
2018-02-19T10:06:37.835Z,13.83
2018-02-19T10:09:04.134Z,11.50
2018-02-19T10:11:30.394Z,12.23
2018-02-19T10:13:57.085Z,14.27
2018-02-19T10:16:24.075Z,13.67
2018-02-19T10:18:50.899Z,13.87
2018-02-19T10:21:18.210Z,13.30
2018-02-19T10:23:44.494Z,14.27
2018-02-19T10:26:11.820Z,15.93
2018-02-19T10:28:38.070Z,9.57
2018-02-19T10:31:05.139Z,9.77
2018-02-19T10:33:32.134Z,11.57
2018-02-19T10:35:59.142Z,8.47
2018-02-19T10:38:26.124Z,11.10
2018-02-19T10:40:52.386Z,10.30
2018-02-19T10:43:19.289Z,11.20
2018-02-19T10:45:47.762Z,11.10
2018-02-19T10:48:15.235Z,13.70
2018-02-19T10:50:42.227Z,17.83
2018-02-19T10:53:08.475Z,19.50
2018-02-19T10:55:35.166Z,15.53
2018-02-19T10:58:02.614Z,14.60
2018-02-19T11:00:35.526Z,19.20
2018-02-19T11:03:01.774Z,18.57
2018-02-19T11:05:28.046Z,15.33
2018-02-19T11:07:54.318Z,18.33
2018-02-19T11:10:21.378Z,17.93
2018-02-19T11:12:47.642Z,21.20
2018-02-19T11:15:14.542Z,17.93
2018-02-19T11:17:41.526Z,18.43
2018-02-19T11:20:08.350Z,21.10
2018-02-19T11:22:35.330Z,23.00
2018-02-19T11:25:02.255Z,22.27
2018-02-19T11:27:29.230Z,20.77
2018-02-19T11:29:55.534Z,21.40
2018-02-19T11:32:23.106Z,19.00
2018-02-19T11:34:50.850Z,23.80
2018-02-19T11:37:18.244Z,19.70
2018-02-19T11:39:44.499Z,19.17
2018-02-19T11:42:10.734Z,21.30
2018-02-19T11:44:37.547Z,20.23
2018-02-19T11:47:05.003Z,21.00
2018-02-19T11:49:31.987Z,19.90
2018-02-19T11:51:59.006Z,19.17
2018-02-19T11:54:25.994Z,17.97
2018-02-19T11:56:52.667Z,20.57
2018-02-19T11:59:18.912Z,20.67
2018-02-19T12:01:45.158Z,22.23
2018-02-19T12:04:12.446Z,19.33
2018-02-19T12:06:38.685Z,19.87
2018-02-19T12:09:05.046Z,19.97
2018-02-19T12:11:31.613Z,19.33
2018-02-19T12:13:58.210Z,19.73
2018-02-19T12:16:24.454Z,23.57
2018-02-19T12:18:51.166Z,26.53
2018-02-19T12:21:18.531Z,22.67
2018-02-19T12:23:45.531Z,57.53
2018-02-19T12:26:12.270Z,62.90
2018-02-19T12:28:38.544Z,20.90
2018-02-19T12:31:05.312Z,22.20
2018-02-19T12:33:31.926Z,22.90
2018-02-19T12:35:58.898Z,20.47
2018-02-19T12:38:25.891Z,21.97
2018-02-19T12:40:52.725Z,18.10
2018-02-19T12:43:18.978Z,19.50
2018-02-19T12:45:45.662Z,20.70
2018-02-19T12:48:13.134Z,21.00
2018-02-19T12:50:40.474Z,19.63
2018-02-19T12:53:07.124Z,21.60
2018-02-19T12:55:33.362Z,21.20
2018-02-19T12:58:00.427Z,18.17
2018-02-19T13:00:27.736Z,18.80
2018-02-19T13:02:53.971Z,18.80
2018-02-19T13:05:20.318Z,21.30
2018-02-19T13:07:46.891Z,20.60
2018-02-19T13:10:14.579Z,21.43
2018-02-19T13:12:40.838Z,20.57
2018-02-19T13:15:07.519Z,24.73
2018-02-19T13:17:34.512Z,17.67
2018-02-19T13:20:02.074Z,18.67
2018-02-19T13:22:29.054Z,18.53
2018-02-19T13:24:55.733Z,21.03
2018-02-19T13:27:21.978Z,21.53
2018-02-19T13:29:49.315Z,22.17
2018-02-19T13:32:15.989Z,18.20
2018-02-19T13:34:42.983Z,22.17
2018-02-19T13:37:09.685Z,17.43
2018-02-19T13:39:37.354Z,21.37
2018-02-19T13:42:04.347Z,17.93
2018-02-19T13:44:30.619Z,17.53
2018-02-19T13:46:57.707Z,16.93
2018-02-19T13:49:24.709Z,25.50
2018-02-19T13:51:51.622Z,19.67
2018-02-19T13:54:18.453Z,21.00
2018-02-19T13:56:45.436Z,18.00
2018-02-19T13:59:12.148Z,20.33
2018-02-19T14:01:39.601Z,20.30
2018-02-19T14:04:06.590Z,17.30
2018-02-19T14:06:32.859Z,22.10
2018-02-19T14:08:59.729Z,22.60
2018-02-19T14:11:25.972Z,22.80
2018-02-19T14:13:53.656Z,18.90
2018-02-19T14:16:19.901Z,17.60
2018-02-19T14:18:46.158Z,18.13
2018-02-19T14:21:12.843Z,18.80
2018-02-19T14:23:39.188Z,22.30
2018-02-19T14:26:06.627Z,19.80
2018-02-19T14:28:33.396Z,22.80
2018-02-19T14:31:01.148Z,20.00
2018-02-19T14:33:28.149Z,21.07
2018-02-19T14:35:54.865Z,21.27
2018-02-19T14:38:22.529Z,22.90
2018-02-19T14:40:49.533Z,21.23
2018-02-19T14:43:15.787Z,21.30
2018-02-19T14:45:43.386Z,22.23
2018-02-19T14:48:11.049Z,21.37
2018-02-19T14:50:38.033Z,20.80
2018-02-19T14:53:04.286Z,25.40
2018-02-19T14:55:31.282Z,19.83
2018-02-19T14:57:58.268Z,22.17
2018-02-19T15:00:24.516Z,25.20
2018-02-19T15:02:51.133Z,23.77
2018-02-19T15:05:17.370Z,20.60
2018-02-19T15:07:43.721Z,23.20
2018-02-19T15:10:10.004Z,21.13
2018-02-19T15:12:36.836Z,23.50
2018-02-19T15:15:03.387Z,22.10
2018-02-19T15:17:29.639Z,21.13
2018-02-19T15:19:56.643Z,23.00
2018-02-19T15:22:23.539Z,28.60
2018-02-19T15:24:50.976Z,25.07
2018-02-19T15:27:17.817Z,39.30
2018-02-19T15:29:44.093Z,29.33
2018-02-19T15:35:08.966Z,29.23
2018-02-19T15:37:35.275Z,22.90
2018-02-19T15:40:01.524Z,25.37
2018-02-19T15:42:28.310Z,28.53
2018-02-19T15:44:55.315Z,25.10
2018-02-19T15:47:22.340Z,28.27
2018-02-19T15:49:49.066Z,32.83
2018-02-19T15:52:16.058Z,29.17
2018-02-19T15:54:42.331Z,42.17
2018-02-19T15:57:09.613Z,39.80
2018-02-19T15:59:36.605Z,27.17
2018-02-19T16:02:02.978Z,27.13
2018-02-19T16:04:29.245Z,23.43
2018-02-19T16:06:55.515Z,35.67
2018-02-19T16:09:21.767Z,47.20
2018-02-19T16:11:48.058Z,57.43
2018-02-19T16:14:14.901Z,39.40
2018-02-19T16:16:41.713Z,28.17
2018-02-19T16:19:07.974Z,22.73
2018-02-19T16:21:35.333Z,41.60
2018-02-19T16:24:02.339Z,28.47
2018-02-19T16:26:28.925Z,26.70
2018-02-19T16:28:56.368Z,25.30
2018-02-19T16:31:23.235Z,29.50
2018-02-19T16:33:50.234Z,33.20
2018-02-19T16:36:16.520Z,27.07
2018-02-19T16:38:43.597Z,24.27
2018-02-19T16:41:10.170Z,34.00
2018-02-19T16:43:36.967Z,36.67
2018-02-19T16:46:03.245Z,34.50
2018-02-19T16:48:30.122Z,23.80
2018-02-19T16:50:56.755Z,30.97
2018-02-19T16:53:23.009Z,31.23
2018-02-19T16:55:50.003Z,29.10
2018-02-19T16:58:16.274Z,28.30
2018-02-19T17:00:43.349Z,28.03
2018-02-19T17:03:10.544Z,22.70
2018-02-19T17:05:36.861Z,29.40
2018-02-19T17:08:03.122Z,31.07
2018-02-19T17:10:29.934Z,25.43
2018-02-19T17:12:57.607Z,36.67
2018-02-19T17:15:24.603Z,27.33
2018-02-19T17:17:51.447Z,28.13
2018-02-19T17:20:18.662Z,27.33
2018-02-19T17:22:46.118Z,25.43
2018-02-19T17:25:13.604Z,27.33
2018-02-19T17:27:40.427Z,27.67
2018-02-19T17:30:07.917Z,23.53
2018-02-19T17:32:34.710Z,29.43
2018-02-19T17:35:01.005Z,24.70
2018-02-19T17:37:27.925Z,26.50
2018-02-19T17:39:55.591Z,29.40
2018-02-19T17:42:22.929Z,26.43
2018-02-19T17:44:50.010Z,26.63
2018-02-19T17:47:16.627Z,22.10
2018-02-19T17:49:43.218Z,19.87
2018-02-19T17:52:09.466Z,28.10
2018-02-19T17:54:35.773Z,28.57
2018-02-19T17:57:02.779Z,25.73
2018-02-19T17:59:29.028Z,26.23
2018-02-19T18:01:56.127Z,26.87
2018-02-19T18:04:22.819Z,29.47
2018-02-19T18:06:49.170Z,21.03
2018-02-19T18:09:16.642Z,29.73
2018-02-19T18:11:43.638Z,24.20
2018-02-19T18:14:10.467Z,20.30
2018-02-19T18:16:36.722Z,27.30
2018-02-19T18:19:03.227Z,29.27
2018-02-19T18:21:29.962Z,28.90
2018-02-19T18:23:56.946Z,28.00
2018-02-19T18:26:23.622Z,26.60
2018-02-19T18:28:50.275Z,32.27
2018-02-19T18:31:17.046Z,28.90
2018-02-19T18:33:44.053Z,23.00
2018-02-19T18:36:10.851Z,24.73
2018-02-19T18:38:37.454Z,25.93
2018-02-19T18:41:04.062Z,25.10
2018-02-19T18:43:30.356Z,32.37
2018-02-19T18:45:57.372Z,25.20
2018-02-19T18:48:24.158Z,31.43
2018-02-19T18:50:51.690Z,31.43
2018-02-19T18:53:17.982Z,28.80
2018-02-19T18:55:44.251Z,29.93
2018-02-19T18:58:10.530Z,28.73
2018-02-19T19:00:37.525Z,26.00
2018-02-19T19:03:04.409Z,29.20
2018-02-19T19:05:30.683Z,29.43
2018-02-19T19:08:09.586Z,37.73
2018-02-19T19:10:47.558Z,27.87
2018-02-19T19:13:14.269Z,27.87
2018-02-19T19:15:41.165Z,31.27
2018-02-19T19:18:07.939Z,25.90
2018-02-19T19:20:35.599Z,31.20
2018-02-19T19:23:03.059Z,30.40
2018-02-19T19:25:30.528Z,34.80
2018-02-19T19:27:57.123Z,34.50
2018-02-19T19:30:23.706Z,31.17
2018-02-19T19:32:51.162Z,30.20
2018-02-19T19:35:18.167Z,25.30
2018-02-19T19:37:44.746Z,26.13
2018-02-19T19:40:11.007Z,28.70
2018-02-19T19:42:38.027Z,30.20
2018-02-19T19:45:04.317Z,30.03
2018-02-19T19:47:31.234Z,28.73
2018-02-19T19:49:58.706Z,32.10
2018-02-19T19:52:25.699Z,30.03
2018-02-19T19:54:51.987Z,32.83
2018-02-19T19:57:19.013Z,41.13
2018-02-19T19:59:45.304Z,31.80
2018-02-19T20:02:11.635Z,31.93
2018-02-19T20:04:38.435Z,33.03
2018-02-19T20:07:04.693Z,36.50
2018-02-19T20:09:31.702Z,34.53
2018-02-19T20:11:58.404Z,34.00
2018-02-19T20:14:24.974Z,32.30
2018-02-19T20:16:51.573Z,34.30
2018-02-19T20:19:18.572Z,33.43
2018-02-19T20:21:45.683Z,31.43
2018-02-19T20:24:12.698Z,39.83
2018-02-19T20:26:39.398Z,31.50
2018-02-19T20:29:06.083Z,33.97
2018-02-19T20:31:32.861Z,34.13
2018-02-19T20:34:00.334Z,34.13
2018-02-19T20:36:26.624Z,36.93
2018-02-19T20:38:52.882Z,35.73
2018-02-19T20:41:19.894Z,32.60
2018-02-19T20:43:46.160Z,33.13
2018-02-19T20:46:12.526Z,38.60
2018-02-19T20:48:40.150Z,45.23
2018-02-19T20:51:06.819Z,36.17
2018-02-19T20:53:33.830Z,36.87
2018-02-19T20:56:00.077Z,30.27
2018-02-19T20:58:26.382Z,36.77
2018-02-19T21:00:52.694Z,31.00
2018-02-19T21:03:20.325Z,36.27
2018-02-19T21:05:47.002Z,43.43
2018-02-19T21:08:13.995Z,37.23
2018-02-19T21:10:40.698Z,38.70
2018-02-19T21:13:08.261Z,35.73
2018-02-19T21:15:35.300Z,38.03
2018-02-19T21:18:02.358Z,38.17
2018-02-19T21:20:30.140Z,33.53
2018-02-19T21:22:57.595Z,36.57
2018-02-19T21:25:25.046Z,42.00
2018-02-19T21:27:52.659Z,36.63
2018-02-19T21:30:18.944Z,40.37
2018-02-19T21:32:46.383Z,33.73
2018-02-19T21:35:12.645Z,35.13
2018-02-19T21:37:39.654Z,35.00
2018-02-19T21:40:05.946Z,36.20
2018-02-19T21:42:32.946Z,37.83
2018-02-19T21:44:59.411Z,35.43
2018-02-19T21:47:26.318Z,35.77
2018-02-19T21:49:52.566Z,34.70
2018-02-19T21:52:18.810Z,33.00
2018-02-19T21:54:45.394Z,36.33
2018-02-19T21:57:12.417Z,27.13
2018-02-19T21:59:38.795Z,36.10
2018-02-19T22:02:05.340Z,27.57
2018-02-19T22:04:31.960Z,28.60
2018-02-19T22:06:58.963Z,29.93
2018-02-19T22:09:25.842Z,37.20
2018-02-19T22:11:52.451Z,36.97
2018-02-19T22:14:19.258Z,37.27
2018-02-19T22:16:46.253Z,33.17
2018-02-19T22:19:12.534Z,35.07
2018-02-19T22:21:39.853Z,35.13
2018-02-19T22:24:06.098Z,45.63
2018-02-19T22:26:33.083Z,43.23
2018-02-19T22:28:59.734Z,33.83
2018-02-19T22:31:27.299Z,34.27
2018-02-19T22:33:54.284Z,35.03
2018-02-19T22:36:20.543Z,32.70
2018-02-19T22:38:46.819Z,29.93
2018-02-19T22:41:13.810Z,27.83
2018-02-19T22:43:40.916Z,27.37
2018-02-19T22:46:07.910Z,35.77
2018-02-19T22:48:35.018Z,34.43
2018-02-19T22:51:03.331Z,31.97
2018-02-19T22:53:29.582Z,33.40
2018-02-19T22:55:55.851Z,35.60
2018-02-19T22:58:22.115Z,28.63
2018-02-19T23:00:49.114Z,31.77
2018-02-19T23:03:16.018Z,34.10
2018-02-19T23:05:43.579Z,25.27
2018-02-19T23:08:11.547Z,32.30
2018-02-19T23:10:38.534Z,27.07
2018-02-19T23:13:06.011Z,23.13
2018-02-19T23:15:32.258Z,19.90
2018-02-19T23:17:58.506Z,21.47
2018-02-19T23:20:25.998Z,25.00
2018-02-19T23:22:53.410Z,23.83
2018-02-19T23:25:20.051Z,23.00
2018-02-19T23:27:46.940Z,31.13
2018-02-19T23:30:13.931Z,22.00
2018-02-19T23:32:40.628Z,21.80
2018-02-19T23:35:07.673Z,23.03
2018-02-19T23:37:33.890Z,28.70
2018-02-19T23:40:00.488Z,25.60
2018-02-19T23:42:26.782Z,24.97
2018-02-19T23:44:53.115Z,21.40
2018-02-19T23:47:19.373Z,22.70
2018-02-19T23:49:46.814Z,24.37
2018-02-19T23:52:13.645Z,26.83
2018-02-19T23:54:39.956Z,38.30
2018-02-19T23:57:06.210Z,25.57
2018-02-19T23:59:32.804Z,36.43
